createdAt,value
2018-11-04T00:00:02.113Z,13.77
2018-11-04T00:02:31.152Z,13.43
2018-11-04T00:04:59.777Z,13.83
2018-11-04T00:07:28.432Z,13.43
2018-11-04T00:09:57.068Z,12.80
2018-11-04T00:12:25.700Z,13.60
2018-11-04T00:14:54.364Z,14.60
2018-11-04T00:17:23.000Z,13.43
2018-11-04T00:19:51.644Z,12.93
2018-11-04T00:22:20.286Z,13.00
2018-11-04T00:24:48.936Z,12.73
2018-11-04T00:27:17.845Z,13.70
2018-11-04T00:29:46.513Z,13.17
2018-11-04T00:32:15.020Z,13.27
2018-11-04T00:34:43.700Z,13.37
2018-11-04T00:37:12.306Z,12.30
2018-11-04T00:39:40.956Z,12.43
2018-11-04T00:42:09.573Z,12.40
2018-11-04T00:44:38.192Z,12.87
2018-11-04T00:47:07.428Z,12.13
2018-11-04T00:49:36.109Z,13.20
2018-11-04T00:52:05.212Z,13.30
2018-11-04T00:54:33.868Z,13.63
2018-11-04T00:57:02.487Z,14.40
2018-11-04T00:59:31.144Z,16.30
2018-11-04T01:01:59.801Z,16.90
2018-11-04T01:04:28.443Z,18.13
2018-11-04T01:06:57.156Z,16.50
2018-11-04T01:09:25.791Z,16.73
2018-11-04T01:11:54.411Z,16.47
2018-11-04T01:14:23.043Z,16.90
2018-11-04T01:16:51.711Z,16.00
2018-11-04T01:19:20.384Z,16.40
2018-11-04T01:21:49.036Z,15.50
2018-11-04T01:24:17.678Z,14.70
2018-11-04T01:26:46.298Z,14.67
2018-11-04T01:29:15.101Z,14.80
2018-11-04T01:31:43.699Z,12.77
2018-11-04T01:34:12.351Z,14.70
2018-11-04T01:36:40.984Z,13.00
2018-11-04T01:39:10.544Z,14.23
2018-11-04T01:41:39.512Z,13.37
2018-11-04T01:44:10.703Z,13.87
2018-11-04T01:46:40.296Z,12.33
2018-11-04T01:49:09.184Z,10.73
2018-11-04T01:51:37.805Z,11.10
2018-11-04T01:54:06.680Z,10.60
2018-11-04T01:56:35.343Z,11.27
2018-11-04T01:59:04.220Z,11.47
2018-11-04T02:01:32.856Z,11.90
2018-11-04T02:04:01.504Z,12.37
2018-11-04T02:06:30.160Z,11.17
2018-11-04T02:08:58.815Z,11.67
2018-11-04T02:11:27.435Z,10.87
2018-11-04T02:13:56.202Z,10.90
2018-11-04T02:16:24.811Z,10.67
2018-11-04T02:18:53.443Z,11.60
2018-11-04T02:21:22.124Z,10.43
2018-11-04T02:23:50.762Z,11.03
2018-11-04T02:26:19.573Z,11.60
2018-11-04T02:28:48.236Z,10.20
2018-11-04T02:31:16.912Z,10.67
2018-11-04T02:33:45.581Z,10.43
2018-11-04T02:36:14.236Z,10.37
2018-11-04T02:38:42.882Z,11.13
2018-11-04T02:41:11.545Z,10.60
2018-11-04T02:43:40.215Z,11.00
2018-11-04T02:46:08.958Z,9.30
2018-11-04T02:48:37.952Z,10.50
2018-11-04T02:51:06.577Z,9.77
2018-11-04T02:53:35.224Z,11.20
2018-11-04T02:56:03.843Z,10.90
2018-11-04T02:58:32.469Z,11.27
2018-11-04T03:01:01.180Z,11.13
2018-11-04T03:03:29.864Z,11.03
2018-11-04T03:05:58.520Z,11.63
2018-11-04T03:08:27.168Z,12.73
2018-11-04T03:10:55.812Z,11.40
2018-11-04T03:13:24.455Z,10.57
2018-11-04T03:15:53.089Z,10.47
2018-11-04T03:18:21.755Z,10.50
2018-11-04T03:20:50.377Z,11.13
2018-11-04T03:23:19.023Z,11.13
2018-11-04T03:25:48.688Z,11.80
2018-11-04T03:28:17.317Z,11.70
2018-11-04T03:30:46.041Z,11.40
2018-11-04T03:33:14.648Z,12.20
2018-11-04T03:35:43.281Z,12.13
2018-11-04T03:38:11.896Z,12.00
2018-11-04T03:40:40.576Z,12.20
2018-11-04T03:43:09.347Z,13.40
2018-11-04T03:45:37.979Z,12.60
2018-11-04T03:48:06.652Z,12.33
2018-11-04T03:50:35.284Z,12.13
2018-11-04T03:53:04.780Z,11.57
2018-11-04T03:55:34.009Z,11.90
2018-11-04T03:58:02.832Z,12.80
2018-11-04T04:00:31.513Z,12.13
2018-11-04T04:03:00.133Z,12.70
2018-11-04T04:05:28.837Z,13.13
2018-11-04T04:07:57.701Z,12.87
2018-11-04T04:10:26.340Z,14.10
2018-11-04T04:12:54.957Z,12.23
2018-11-04T04:15:23.636Z,15.10
2018-11-04T04:17:52.279Z,14.37
2018-11-04T04:20:20.961Z,14.30
2018-11-04T04:22:49.580Z,14.83
2018-11-04T04:25:18.216Z,14.10
2018-11-04T04:27:46.888Z,15.00
2018-11-04T04:30:15.548Z,13.60
2018-11-04T04:32:44.240Z,14.10
2018-11-04T04:35:12.877Z,14.13
2018-11-04T04:37:41.992Z,14.20
2018-11-04T04:40:11.065Z,14.60
2018-11-04T04:42:39.697Z,14.60
2018-11-04T04:45:08.353Z,14.47
2018-11-04T04:47:36.980Z,14.00
2018-11-04T04:50:05.644Z,15.40
2018-11-04T04:52:34.285Z,15.07
2018-11-04T04:55:02.964Z,14.33
2018-11-04T04:57:31.598Z,14.60
2018-11-04T05:00:00.409Z,16.27
2018-11-04T05:02:29.132Z,15.83
2018-11-04T05:04:58.297Z,16.10
2018-11-04T05:07:26.996Z,16.50
2018-11-04T05:09:55.821Z,13.80
2018-11-04T05:12:24.698Z,15.20
2018-11-04T05:14:53.316Z,14.43
2018-11-04T05:17:22.169Z,15.87
2018-11-04T05:19:50.799Z,15.37
2018-11-04T05:22:19.426Z,16.40
2018-11-04T05:24:48.124Z,15.07
2018-11-04T05:27:16.796Z,16.23
2018-11-04T05:29:45.432Z,16.17
2018-11-04T05:32:14.173Z,17.73
2018-11-04T05:34:43.422Z,16.77
2018-11-04T05:37:12.036Z,17.70
2018-11-04T05:39:40.728Z,18.50
2018-11-04T05:42:09.354Z,17.70
2018-11-04T05:44:38.107Z,18.87
2018-11-04T05:47:07.211Z,18.13
2018-11-04T05:49:35.852Z,17.17
2018-11-04T05:52:04.493Z,19.87
2018-11-04T05:54:33.187Z,18.67
2018-11-04T05:57:01.789Z,18.77
2018-11-04T05:59:30.432Z,18.13
2018-11-04T06:01:59.155Z,19.73
2018-11-04T06:04:27.871Z,18.43
2018-11-04T06:06:56.496Z,17.40
2018-11-04T06:09:25.143Z,17.93
2018-11-04T06:11:53.751Z,17.83
2018-11-04T06:14:22.375Z,18.43
2018-11-04T06:16:51.036Z,17.53
2018-11-04T06:19:19.735Z,18.03
2018-11-04T06:21:48.401Z,18.57
2018-11-04T06:24:17.172Z,20.90
2018-11-04T06:26:45.906Z,19.40
2018-11-04T06:29:14.543Z,19.70
2018-11-04T06:31:43.226Z,20.87
2018-11-04T06:34:11.928Z,19.60
2018-11-04T06:36:40.561Z,22.03
2018-11-04T06:39:09.673Z,20.67
2018-11-04T06:41:38.484Z,19.93
2018-11-04T06:44:07.472Z,21.17
2018-11-04T06:46:36.348Z,22.53
2018-11-04T06:49:06.385Z,22.63
2018-11-04T06:51:35.170Z,22.37
2018-11-04T06:54:04.106Z,22.30
2018-11-04T06:56:33.029Z,24.53
2018-11-04T06:59:01.734Z,22.13
2018-11-04T07:01:30.378Z,22.93
2018-11-04T07:04:10.749Z,22.40
2018-11-04T07:06:39.437Z,24.13
2018-11-04T07:09:08.876Z,26.03
2018-11-04T07:11:37.480Z,24.80
2018-11-04T07:14:06.085Z,23.43
2018-11-04T07:16:34.776Z,25.93
2018-11-04T07:19:03.413Z,23.90
2018-11-04T07:21:32.061Z,23.50
2018-11-04T07:24:00.717Z,24.00
2018-11-04T07:26:29.374Z,23.07
2018-11-04T07:28:58.173Z,24.33
2018-11-04T07:31:26.818Z,24.20
2018-11-04T07:33:55.465Z,22.80
2018-11-04T07:36:24.317Z,25.27
2018-11-04T07:38:52.973Z,24.37
2018-11-04T07:41:21.636Z,24.07
2018-11-04T07:43:50.495Z,23.07
2018-11-04T07:46:19.680Z,24.60
2018-11-04T07:48:48.875Z,25.67
2018-11-04T07:51:17.889Z,27.70
2018-11-04T07:53:46.764Z,23.97
2018-11-04T07:56:15.977Z,22.60
2018-11-04T07:58:44.795Z,23.83
2018-11-04T08:01:14.000Z,24.60
2018-11-04T08:03:42.688Z,25.13
2018-11-04T08:06:11.411Z,25.10
2018-11-04T08:08:40.084Z,24.97
2018-11-04T08:11:08.803Z,24.73
2018-11-04T08:13:37.525Z,24.27
2018-11-04T08:16:08.891Z,23.80
2018-11-04T08:18:37.988Z,24.60
2018-11-04T08:21:06.722Z,25.20
2018-11-04T08:23:35.421Z,23.97
2018-11-04T08:26:04.350Z,24.50
2018-11-04T08:28:33.025Z,24.53
2018-11-04T08:31:01.708Z,24.57
2018-11-04T08:33:30.393Z,24.47
2018-11-04T08:35:59.089Z,24.50
2018-11-04T08:38:27.771Z,22.73
2018-11-04T08:40:56.416Z,24.80
2018-11-04T08:43:25.144Z,23.40
2018-11-04T08:45:53.920Z,22.20
2018-11-04T08:48:22.520Z,23.20
2018-11-04T08:50:51.192Z,24.73
2018-11-04T08:53:19.836Z,23.60
2018-11-04T08:55:48.509Z,23.10
2018-11-04T08:58:17.177Z,23.47
2018-11-04T09:00:45.846Z,24.63
2018-11-04T09:03:14.654Z,24.20
2018-11-04T09:05:43.278Z,23.10
2018-11-04T09:08:11.970Z,25.47
2018-11-04T09:10:40.681Z,24.10
2018-11-04T09:13:09.410Z,23.67
2018-11-04T09:15:38.428Z,23.90
2018-11-04T09:18:07.366Z,24.70
2018-11-04T09:20:35.986Z,25.43
2018-11-04T09:23:05.170Z,23.80
2018-11-04T09:25:33.796Z,25.23
2018-11-04T09:28:02.468Z,23.87
2018-11-04T09:30:31.096Z,22.63
2018-11-04T09:32:59.815Z,25.33
2018-11-04T09:35:28.627Z,23.20
2018-11-04T09:37:57.266Z,24.93
2018-11-04T09:40:26.017Z,25.60
2018-11-04T09:42:54.704Z,22.97
2018-11-04T09:45:23.577Z,25.30
2018-11-04T09:47:52.240Z,23.27
2018-11-04T09:50:20.924Z,23.37
2018-11-04T09:52:49.736Z,23.83
2018-11-04T09:55:18.681Z,22.73
2018-11-04T09:57:47.273Z,24.57
2018-11-04T10:00:16.000Z,24.27
2018-11-04T10:02:44.660Z,23.43
2018-11-04T10:05:13.320Z,25.30
2018-11-04T10:07:42.233Z,25.43
2018-11-04T10:10:12.587Z,25.60
2018-11-04T10:12:42.380Z,25.70
2018-11-04T10:15:11.293Z,23.10
2018-11-04T10:17:40.732Z,21.63
2018-11-04T10:20:10.969Z,23.80
2018-11-04T10:22:40.051Z,23.93
2018-11-04T10:25:09.977Z,23.37
2018-11-04T10:27:39.044Z,25.13
2018-11-04T10:30:09.771Z,25.80
2018-11-04T10:32:38.568Z,22.83
2018-11-04T10:35:07.950Z,25.33
2018-11-04T10:37:36.799Z,25.60
2018-11-04T10:40:06.599Z,25.00
2018-11-04T10:42:35.254Z,24.20
2018-11-04T10:45:04.288Z,27.40
2018-11-04T10:47:33.187Z,25.70
2018-11-04T10:50:01.979Z,24.53
2018-11-04T10:52:30.664Z,26.53
2018-11-04T10:55:00.821Z,27.67
2018-11-04T10:57:31.759Z,26.37
2018-11-04T11:00:00.422Z,29.40
2018-11-04T11:02:33.636Z,27.70
2018-11-04T11:05:02.322Z,30.40
2018-11-04T11:07:30.940Z,30.03
2018-11-04T11:10:00.489Z,29.70
2018-11-04T11:12:29.206Z,31.07
2018-11-04T11:15:05.330Z,31.20
2018-11-04T11:17:34.000Z,28.20
2018-11-04T11:20:04.920Z,32.70
2018-11-04T11:22:33.683Z,31.97
2018-11-04T11:25:02.217Z,31.23
2018-11-04T11:27:30.943Z,31.73
2018-11-04T11:30:00.159Z,28.83
2018-11-04T11:32:29.837Z,29.03
2018-11-04T11:35:01.044Z,28.60
2018-11-04T11:37:29.875Z,31.60
2018-11-04T11:39:58.576Z,30.90
2018-11-04T11:42:29.005Z,31.00
2018-11-04T11:44:57.949Z,31.70
2018-11-04T11:47:26.517Z,30.33
2018-11-04T11:49:57.269Z,31.60
2018-11-04T11:52:26.117Z,31.80
2018-11-04T11:54:55.457Z,30.37
2018-11-04T11:57:24.087Z,31.20
2018-11-04T11:59:52.757Z,31.80
2018-11-04T12:02:21.479Z,32.37
2018-11-04T12:04:51.089Z,34.60
2018-11-04T12:07:20.578Z,32.50
2018-11-04T12:09:49.594Z,32.60
2018-11-04T12:12:18.237Z,33.80
2018-11-04T12:14:46.908Z,33.77
2018-11-04T12:17:15.552Z,35.87
2018-11-04T12:19:45.703Z,36.40
2018-11-04T12:22:15.367Z,34.40
2018-11-04T12:24:44.005Z,34.07
2018-11-04T12:27:12.653Z,32.70
2018-11-04T12:29:41.281Z,33.37
2018-11-04T12:32:10.090Z,36.53
2018-11-04T12:34:38.994Z,35.40
2018-11-04T12:37:09.973Z,35.60
2018-11-04T12:39:38.588Z,32.10
2018-11-04T12:42:07.220Z,35.27
2018-11-04T12:44:36.230Z,35.37
2018-11-04T12:47:06.601Z,33.67
2018-11-04T12:49:35.608Z,35.10
2018-11-04T12:52:04.326Z,32.40
2018-11-04T12:54:32.949Z,35.50
2018-11-04T12:57:01.570Z,31.93
2018-11-04T12:59:31.100Z,32.50
2018-11-04T13:02:00.276Z,28.80
2018-11-04T13:04:33.097Z,27.43
2018-11-04T13:07:01.752Z,30.07
2018-11-04T13:09:30.675Z,27.50
2018-11-04T13:11:59.798Z,28.27
2018-11-04T13:14:29.746Z,27.67
2018-11-04T13:16:58.372Z,29.00
2018-11-04T13:19:27.520Z,29.80
2018-11-04T13:21:56.267Z,28.47
2018-11-04T13:24:25.343Z,26.97
2018-11-04T13:26:54.559Z,27.47
2018-11-04T13:29:23.673Z,27.57
2018-11-04T13:31:52.468Z,27.70
2018-11-04T13:34:22.308Z,28.13
2018-11-04T13:36:51.316Z,28.20
2018-11-04T13:39:20.349Z,26.30
2018-11-04T13:41:49.160Z,28.60
2018-11-04T13:44:18.516Z,27.13
2018-11-04T13:46:47.346Z,29.30
2018-11-04T13:49:17.313Z,29.77
2018-11-04T13:51:47.658Z,27.57
2018-11-04T13:54:16.926Z,28.47
2018-11-04T13:56:49.341Z,29.57
2018-11-04T13:59:22.861Z,28.97
2018-11-04T14:01:51.819Z,28.97
2018-11-04T14:04:20.560Z,31.93
2018-11-04T14:06:53.921Z,28.37
2018-11-04T14:09:22.701Z,28.10
2018-11-04T14:11:53.068Z,30.30
2018-11-04T14:14:21.853Z,27.13
2018-11-04T14:16:50.642Z,26.87
2018-11-04T14:19:19.435Z,31.13
2018-11-04T14:21:48.308Z,28.00
2018-11-04T14:24:21.064Z,28.63
2018-11-04T14:26:51.853Z,28.80
2018-11-04T14:29:21.257Z,28.40
2018-11-04T14:31:50.704Z,25.77
2018-11-04T14:34:21.073Z,27.53
2018-11-04T14:36:50.848Z,26.50
2018-11-04T14:39:20.167Z,26.30
2018-11-04T14:41:48.779Z,26.27
2018-11-04T14:44:17.757Z,27.17
2018-11-04T14:46:46.413Z,27.90
2018-11-04T14:49:19.464Z,27.23
2018-11-04T14:51:48.224Z,27.53
2018-11-04T14:54:16.987Z,28.23
2018-11-04T14:56:45.718Z,28.73
2018-11-04T14:59:14.371Z,29.80
2018-11-04T15:01:43.508Z,34.80
2018-11-04T15:04:14.936Z,28.50
2018-11-04T15:06:47.546Z,28.57
2018-11-04T15:09:16.157Z,28.97
2018-11-04T15:11:46.026Z,30.97
2018-11-04T15:14:14.683Z,27.93
2018-11-04T15:16:43.420Z,28.27
2018-11-04T15:19:13.797Z,39.00
2018-11-04T15:21:42.305Z,39.67
2018-11-04T15:24:11.020Z,33.20
2018-11-04T15:26:39.740Z,34.40
2018-11-04T15:29:09.215Z,30.50
2018-11-04T15:31:38.053Z,33.60
2018-11-04T15:34:06.989Z,30.47
2018-11-04T15:36:37.410Z,32.50
2018-11-04T15:39:10.425Z,32.17
2018-11-04T15:41:39.723Z,32.50
2018-11-04T15:44:09.009Z,34.87
2018-11-04T15:46:37.949Z,31.43
2018-11-04T15:49:07.163Z,31.67
2018-11-04T15:51:35.736Z,32.43
2018-11-04T15:54:04.396Z,32.67
2018-11-04T15:56:33.841Z,34.40
2018-11-04T15:59:02.492Z,34.73
2018-11-04T16:01:32.845Z,31.87
2018-11-04T16:04:01.570Z,37.13
2018-11-04T16:06:30.655Z,35.10
2018-11-04T16:08:59.413Z,34.87
2018-11-04T16:11:28.133Z,35.57
2018-11-04T16:13:56.784Z,35.93
2018-11-04T16:16:26.245Z,34.20
2018-11-04T16:18:55.106Z,37.90
2018-11-04T16:21:23.730Z,34.90
2018-11-04T16:23:52.376Z,37.00
2018-11-04T16:26:21.005Z,35.80
2018-11-04T16:28:50.728Z,33.50
2018-11-04T16:31:19.493Z,40.60
2018-11-04T16:33:48.174Z,34.73
2018-11-04T16:36:17.009Z,35.07
2018-11-04T16:38:46.384Z,37.57
2018-11-04T16:41:16.453Z,36.77
2018-11-04T16:43:45.308Z,34.50
2018-11-04T16:46:16.277Z,34.77
2018-11-04T16:48:44.983Z,37.00
2018-11-04T16:51:15.367Z,31.93
2018-11-04T16:53:44.050Z,34.93
2018-11-04T16:56:12.935Z,33.13
2018-11-04T16:58:41.679Z,33.00
2018-11-04T17:01:10.325Z,33.63
2018-11-04T17:03:40.076Z,34.23
2018-11-04T17:06:08.690Z,34.40
2018-11-04T17:08:37.376Z,36.70
2018-11-04T17:11:06.323Z,37.70
2018-11-04T17:13:36.757Z,35.20
2018-11-04T17:16:06.016Z,36.40
2018-11-04T17:18:34.832Z,34.40
2018-11-04T17:21:06.695Z,34.57
2018-11-04T17:23:35.873Z,35.20
2018-11-04T17:26:04.724Z,35.30
2018-11-04T17:28:33.444Z,38.30
2018-11-04T17:31:02.342Z,37.10
2018-11-04T17:33:31.030Z,38.00
2018-11-04T17:36:01.056Z,33.97
2018-11-04T17:38:30.265Z,35.83
2018-11-04T17:41:00.934Z,37.53
2018-11-04T17:43:29.777Z,36.60
2018-11-04T17:45:58.500Z,38.23
2018-11-04T17:48:29.394Z,35.73
2018-11-04T17:50:58.069Z,33.90
2018-11-04T17:53:28.337Z,35.10
2018-11-04T17:55:57.700Z,34.27
2018-11-04T17:58:27.217Z,33.90
2018-11-04T18:00:56.293Z,34.80
2018-11-04T18:03:25.257Z,31.23
2018-11-04T18:05:53.922Z,34.87
2018-11-04T18:08:22.804Z,34.27
2018-11-04T18:10:52.496Z,34.60
2018-11-04T18:13:21.335Z,35.03
2018-11-04T18:15:50.680Z,35.10
2018-11-04T18:18:19.556Z,33.37
2018-11-04T18:20:48.745Z,35.57
2018-11-04T18:23:17.396Z,34.07
2018-11-04T18:25:46.022Z,33.53
2018-11-04T18:28:14.769Z,35.93
2018-11-04T18:30:43.560Z,33.90
2018-11-04T18:33:12.267Z,36.10
2018-11-04T18:35:41.089Z,35.50
2018-11-04T18:38:09.811Z,34.20
2018-11-04T18:40:38.464Z,34.00
2018-11-04T18:43:07.196Z,33.43
2018-11-04T18:45:35.796Z,33.17
2018-11-04T18:48:05.489Z,35.87
2018-11-04T18:50:34.274Z,34.87
2018-11-04T18:53:04.492Z,33.63
2018-11-04T18:55:33.200Z,35.40
2018-11-04T18:58:02.704Z,35.33
2018-11-04T19:00:32.504Z,36.40
2018-11-04T19:03:01.522Z,33.83
2018-11-04T19:05:30.353Z,34.10
2018-11-04T19:07:59.045Z,33.83
2018-11-04T19:10:27.729Z,34.60
2018-11-04T19:12:57.820Z,35.10
2018-11-04T19:15:26.648Z,33.13
2018-11-04T19:17:55.795Z,35.07
2018-11-04T19:20:24.928Z,33.83
2018-11-04T19:22:53.594Z,33.50
2018-11-04T19:25:22.297Z,33.67
2018-11-04T19:27:51.013Z,34.40
2018-11-04T19:30:19.728Z,32.90
2018-11-04T19:32:50.173Z,37.00
2018-11-04T19:35:19.185Z,33.67
2018-11-04T19:37:47.962Z,37.67
2018-11-04T19:40:17.292Z,34.80
2018-11-04T19:42:46.583Z,34.77
2018-11-04T19:45:15.185Z,34.40
2018-11-04T19:47:43.896Z,36.13
2018-11-04T19:50:14.107Z,35.50
2018-11-04T19:52:43.113Z,37.23
2018-11-04T19:55:12.817Z,37.33
2018-11-04T19:57:41.525Z,39.17
2018-11-04T20:00:11.136Z,39.23
2018-11-04T20:02:40.620Z,51.13
2018-11-04T20:05:10.402Z,78.23
2018-11-04T20:07:39.850Z,59.50
2018-11-04T20:10:15.132Z,46.53
2018-11-04T20:12:49.240Z,40.97
2018-11-04T20:15:18.611Z,36.87
2018-11-04T20:17:48.236Z,37.53
2018-11-04T20:20:18.868Z,36.63
2018-11-04T20:22:47.600Z,36.47
2018-11-04T20:25:21.979Z,40.63
2018-11-04T20:27:51.672Z,36.20
2018-11-04T20:32:52.045Z,39.87
2018-11-04T20:35:20.820Z,37.40
2018-11-04T20:37:49.492Z,39.70
2018-11-04T20:40:23.512Z,36.93
2018-11-04T20:42:52.877Z,39.07
2018-11-04T20:45:22.031Z,41.67
2018-11-04T20:47:57.532Z,38.83
2018-11-04T20:50:31.880Z,41.30
2018-11-04T20:53:00.961Z,41.17
2018-11-04T20:55:35.260Z,41.77
2018-11-04T20:58:04.627Z,40.00
2018-11-04T21:00:33.258Z,40.43
2018-11-04T21:03:01.989Z,41.30
2018-11-04T21:05:35.326Z,41.80
2018-11-04T21:08:04.004Z,46.67
2018-11-04T21:10:33.901Z,44.57
2018-11-04T21:13:02.757Z,44.00
2018-11-04T21:15:35.527Z,43.37
2018-11-04T21:18:04.486Z,42.53
2018-11-04T21:20:33.160Z,42.63
2018-11-04T21:23:01.804Z,44.97
2018-11-04T21:25:36.187Z,43.60
2018-11-04T21:28:05.561Z,42.33
2018-11-04T21:30:34.110Z,41.77
2018-11-04T21:33:02.863Z,44.03
2018-11-04T21:35:31.583Z,43.60
2018-11-04T21:38:00.555Z,44.50
2018-11-04T21:40:28.998Z,42.83
2018-11-04T21:42:58.844Z,42.30
2018-11-04T21:45:27.557Z,47.17
2018-11-04T21:47:56.263Z,51.00
2018-11-04T21:50:24.904Z,65.60
2018-11-04T21:52:53.525Z,74.37
2018-11-04T21:55:28.037Z,51.40
2018-11-04T21:57:56.620Z,49.47
2018-11-04T22:00:25.617Z,61.93
2018-11-04T22:02:54.426Z,82.77
2018-11-04T22:05:28.676Z,47.77
2018-11-04T22:07:57.611Z,74.37
2018-11-04T22:10:26.368Z,54.20
2018-11-04T22:12:55.034Z,46.00
2018-11-04T22:15:24.942Z,47.10
2018-11-04T22:17:53.713Z,45.87
2018-11-04T22:20:24.068Z,49.60
2018-11-04T22:22:52.979Z,48.60
2018-11-04T22:25:22.138Z,49.93
2018-11-04T22:27:50.811Z,50.70
2018-11-04T22:30:19.466Z,50.07
2018-11-04T22:32:48.092Z,48.50
2018-11-04T22:35:16.801Z,51.50
2018-11-04T22:37:46.389Z,49.40
2018-11-04T22:40:16.244Z,51.87
2018-11-04T22:42:44.891Z,52.80
2018-11-04T22:45:14.692Z,49.60
2018-11-04T22:47:43.534Z,51.00
2018-11-04T22:50:15.358Z,50.70
2018-11-04T22:52:44.401Z,51.60
2018-11-04T22:55:13.854Z,50.70
2018-11-04T22:57:43.068Z,49.97
2018-11-04T23:00:17.267Z,53.87
2018-11-04T23:02:47.248Z,49.30
2018-11-04T23:05:22.200Z,52.17
2018-11-04T23:07:51.123Z,51.33
2018-11-04T23:10:19.779Z,54.20
2018-11-04T23:12:48.552Z,50.27
2018-11-04T23:15:17.203Z,53.83
2018-11-04T23:17:46.813Z,55.90
2018-11-04T23:20:15.434Z,56.80
2018-11-04T23:22:45.728Z,54.03
2018-11-04T23:25:15.624Z,53.17
2018-11-04T23:27:44.699Z,55.23
2018-11-04T23:30:15.203Z,56.23
2018-11-04T23:32:46.562Z,57.13
2018-11-04T23:35:15.230Z,53.33
2018-11-04T23:37:44.665Z,55.73
2018-11-04T23:40:13.600Z,58.73
2018-11-04T23:42:43.144Z,54.27
2018-11-04T23:45:13.313Z,57.40
2018-11-04T23:47:42.368Z,58.70
2018-11-04T23:50:13.141Z,59.13
2018-11-04T23:52:42.152Z,59.47
2018-11-04T23:55:12.725Z,58.23
2018-11-04T23:57:41.734Z,61.47
